ADDS METAR Data INFO
IDs: Format: Raw Decoded Include TAF

Data at: 0116 UTC 21 Oct 2017

KYNG 210051Z 18004KT 10SM FEW250 14/03 A3022 RMK AO2 SLP236 T01390028
KYNG 202351Z 16006KT 10SM FEW250 15/03 A3022 RMK AO2 SLP235 T01500028 10222 20117 56005
KYNG 202251Z 16003KT 10SM FEW250 15/05 A3022 RMK AO2 SLP237 T01500050
KYNG 202151Z 00000KT 10SM FEW250 20/04 A3022 RMK AO2 SLP234 T02000044
KYNG 202051Z 00000KT 10SM FEW250 22/01 A3023 RMK AO2 SLP236 T02170011 58010
KYNG 201951Z VRB04KT 10SM FEW250 22/01 A3025 RMK AO2 SLP242 T02170011
KYNG 201851Z 15004KT 10SM FEW250 21/01 A3025 RMK AO2 SLP242 T02110011
KYNG 201751Z 25004KT 10SM FEW250 21/00 A3027 RMK AO2 SLP248 T02110000 10211 20078 58019
KYNG 201651Z VRB03KT 10SM FEW250 19/00 A3029 RMK AO2 SLP258 T01890000
KYNG 201551Z VRB04KT 10SM FEW250 18/03 A3032 RMK AO2 SLP265 T01830028
KYNG 201451Z VRB03KT 10SM FEW250 17/06 A3032 RMK AO2 SLP268 T01670056 51014
KYNG 201351Z 00000KT 10SM FEW250 15/08 A3032 RMK AO2 SLP266 T01500078
KYNG 201251Z 00000KT 10SM SCT250 11/09 A3030 RMK AO2 SLP261 T01060089
KYNG 201151Z 00000KT 9SM MIFG SCT250 08/07 A3028 RMK AO2 SLP255 T00780067 10106 20061 51019
KYNG 201051Z 00000KT 9SM MIFG SCT250 07/06 A3026 RMK AO2 SLP250 T00670061
KYNG 200951Z 00000KT 9SM MIFG SCT250 09/08 A3024 RMK AO2 SLP241 T00890083
KYNG 200851Z 00000KT 9SM MIFG SCT250 09/08 A3022 RMK AO2 SLP232 T00890078 53009
KYNG 200751Z 25003KT 9SM SCT250 09/08 A3021 RMK AO2 SLP228 T00890078
KYNG 200651Z 00000KT 10SM SCT250 10/09 A3020 RMK AO2 SLP225 T01000089
KYNG 200551Z 00000KT 10SM SCT250 11/09 A3019 RMK AO2 SLP223 T01060094 10167 20106 51007
KYNG 200451Z 24003KT 10SM SCT250 11/09 A3019 RMK AO2 SLP221 T01110094 402220083
KYNG 200351Z 23003KT 10SM FEW150 FEW250 12/09 A3018 RMK AO2 SLP219 T01220094
KYNG 200251Z 21003KT 10SM FEW250 12/09 A3017 RMK AO2 SLP216 T01170089 51007
KYNG 200151Z 00000KT 10SM FEW055 SCT250 13/09 A3017 RMK AO2 SLP216 T01330089
KYNG 200051Z 22006KT 10SM SCT055 BKN250 16/09 A3015 RMK AO2 SLP210 T01560094
KYNG 192351Z 22005KT 10SM FEW060 SCT250 17/09 A3015 RMK AO2 SLP210 T01670094 10222 20167 53010
KYNG 192251Z 22007KT 10SM FEW050 SCT250 18/09 A3013 RMK AO2 SLP202 T01830089
KYNG 192151Z 23010G18KT 10SM FEW050 OVC250 21/09 A3012 RMK AO2 SLP199 T02060094
KYNG 192051Z 24015G20KT 10SM FEW050 OVC250 22/09 A3012 RMK AO2 SLP197 T02170089 55008
KYNG 191951Z 24015G23KT 10SM OVC250 22/09 A3012 RMK AO2 SLP196 T02170089
KYNG 191851Z 23013G22KT 10SM BKN250 21/09 A3013 RMK AO2 SLP202 T02110089
KYNG 191751Z 23011G17KT 10SM BKN250 21/09 A3014 RMK AO2 SLP205 T02060089 10211 20083 58011
KYNG 191651Z 21011G16KT 10SM BKN250 19/09 A3017 RMK AO2 SLP215 T01940089
KYNG 191551Z 21012KT 10SM SCT250 18/09 A3017 RMK AO2 SLP215 T01830089
KYNG 191451Z 23011KT 10SM BKN250 17/08 A3018 RMK AO2 SLP218 T01670078 50005
KYNG 191351Z 19007KT 10SM FEW150 SCT220 13/07 A3018 RMK AO2 SLP220 T01330072